createdAt,value
2022-12-26T00:01:44.266Z,25.21
2022-12-26T00:04:52.495Z,25.10
2022-12-26T00:07:41.703Z,25.02
2022-12-26T00:10:30.312Z,25.07
2022-12-26T00:13:40.262Z,25.02
2022-12-26T00:16:29.814Z,25.02
2022-12-26T00:19:18.480Z,25.10
2022-12-26T00:22:07.093Z,25.02
2022-12-26T00:24:55.755Z,25.01
2022-12-26T00:27:45.612Z,24.95
2022-12-26T00:30:34.887Z,24.97
2022-12-26T00:33:24.904Z,24.97
2022-12-26T00:36:15.177Z,24.95
2022-12-26T00:39:05.286Z,24.88
2022-12-26T00:41:54.016Z,24.86
2022-12-26T00:44:42.659Z,24.82
2022-12-26T00:47:31.246Z,24.87
2022-12-26T00:50:21.246Z,24.88
2022-12-26T00:53:09.881Z,24.86
2022-12-26T00:55:58.485Z,24.82
2022-12-26T00:58:47.178Z,24.77
2022-12-26T01:01:36.066Z,24.77
2022-12-26T01:04:24.804Z,24.74
2022-12-26T01:07:14.979Z,24.74
2022-12-26T01:10:03.772Z,24.73
2022-12-26T01:12:52.352Z,24.72
2022-12-26T01:15:41.178Z,24.73
2022-12-26T01:18:29.962Z,24.71
2022-12-26T01:21:18.592Z,24.72
2022-12-26T01:24:08.848Z,24.69
2022-12-26T01:26:57.493Z,24.77
2022-12-26T01:29:46.257Z,24.71
2022-12-26T01:32:34.834Z,24.71
2022-12-26T01:35:23.497Z,24.70
2022-12-26T01:38:12.210Z,24.73
2022-12-26T01:41:19.452Z,24.70
2022-12-26T01:44:29.227Z,24.65
2022-12-26T01:47:18.477Z,24.64
2022-12-26T01:50:09.083Z,24.65
2022-12-26T01:52:59.611Z,24.61
2022-12-26T01:55:50.324Z,24.61
2022-12-26T01:58:44.349Z,24.63
2022-12-26T02:11:39.697Z,24.56
2022-12-26T02:14:30.081Z,24.55
2022-12-26T02:17:18.827Z,24.55
2022-12-26T02:20:15.921Z,24.62
2022-12-26T02:23:32.799Z,24.56
2022-12-26T02:26:53.909Z,24.56
2022-12-26T02:30:07.145Z,24.54
2022-12-26T02:33:28.414Z,24.62
2022-12-26T02:36:27.163Z,24.58
2022-12-26T02:39:43.287Z,24.56
2022-12-26T02:42:42.836Z,24.58
2022-12-26T02:45:53.806Z,24.59
2022-12-26T02:48:47.184Z,24.56
2022-12-26T02:52:04.300Z,24.56
2022-12-26T02:55:14.544Z,24.63
2022-12-26T02:58:24.294Z,24.60
2022-12-26T03:01:44.777Z,24.60
2022-12-26T03:04:53.493Z,24.61
2022-12-26T03:08:13.524Z,24.58
2022-12-26T03:11:20.064Z,24.56
2022-12-26T03:14:14.079Z,24.56
2022-12-26T03:17:19.721Z,24.59
2022-12-26T03:20:12.857Z,24.51
2022-12-26T03:23:05.150Z,24.50
2022-12-26T03:26:14.176Z,24.50
2022-12-26T03:29:19.032Z,24.50
2022-12-26T03:32:10.304Z,24.48
2022-12-26T03:34:58.947Z,24.47
2022-12-26T03:37:52.052Z,24.48
2022-12-26T03:41:11.406Z,24.52
2022-12-26T03:44:26.797Z,24.54
2022-12-26T03:47:39.260Z,24.52
2022-12-26T03:50:51.358Z,24.49
2022-12-26T03:53:58.147Z,24.51
2022-12-26T03:57:07.333Z,24.52
2022-12-26T04:00:32.839Z,24.48
2022-12-26T04:03:41.209Z,24.46
2022-12-26T04:07:01.805Z,24.55
2022-12-26T04:10:11.291Z,24.59
2022-12-26T04:13:19.213Z,24.54
2022-12-26T04:16:33.590Z,24.50
2022-12-26T04:19:36.778Z,24.53
2022-12-26T04:22:45.619Z,24.53
2022-12-26T04:25:55.136Z,24.61
2022-12-26T04:29:02.590Z,24.58
2022-12-26T04:32:13.446Z,24.60
2022-12-26T04:35:24.693Z,24.54
2022-12-26T04:38:34.372Z,24.61
2022-12-26T04:41:41.603Z,24.55
2022-12-26T04:44:32.348Z,24.55
2022-12-26T04:47:21.083Z,24.56
2022-12-26T04:50:12.082Z,24.58
2022-12-26T04:53:01.153Z,24.59
2022-12-26T04:55:50.278Z,24.54
2022-12-26T04:58:38.971Z,24.50
2022-12-26T05:01:46.542Z,24.57
2022-12-26T05:04:52.984Z,24.55
2022-12-26T05:07:59.208Z,24.51
2022-12-26T05:10:47.988Z,24.47
2022-12-26T05:13:36.628Z,24.54
2022-12-26T05:16:42.427Z,24.58
2022-12-26T05:19:50.261Z,24.57
2022-12-26T05:22:58.613Z,24.54
2022-12-26T05:26:05.798Z,24.48
2022-12-26T05:28:57.704Z,24.56
2022-12-26T05:31:46.777Z,24.60
2022-12-26T05:34:38.544Z,24.52
2022-12-26T05:37:27.297Z,24.45
2022-12-26T05:40:15.981Z,24.39
2022-12-26T05:43:04.669Z,24.42
2022-12-26T05:45:53.398Z,24.45
2022-12-26T05:48:42.057Z,24.47
2022-12-26T05:51:32.071Z,24.43
2022-12-26T05:54:20.789Z,24.41
2022-12-26T05:57:09.477Z,24.43
2022-12-26T05:59:58.242Z,24.42
2022-12-26T06:02:47.083Z,24.42
2022-12-26T06:05:35.826Z,24.42
2022-12-26T06:08:25.848Z,24.45
2022-12-26T06:11:15.182Z,24.47
2022-12-26T06:14:04.825Z,24.43
2022-12-26T06:16:53.555Z,24.45
2022-12-26T06:19:46.691Z,24.44
2022-12-26T06:22:35.565Z,24.44
2022-12-26T06:25:25.609Z,24.42
2022-12-26T06:28:14.204Z,24.43
2022-12-26T06:31:06.947Z,24.42
2022-12-26T06:33:58.122Z,24.45
2022-12-26T06:36:46.870Z,24.47
2022-12-26T06:39:35.800Z,24.46
2022-12-26T06:42:26.266Z,24.48
2022-12-26T06:45:14.948Z,24.45
2022-12-26T06:48:03.838Z,24.47
2022-12-26T06:50:54.222Z,24.45
2022-12-26T06:53:43.307Z,24.45
2022-12-26T06:56:32.966Z,24.52
2022-12-26T06:59:23.170Z,24.48
2022-12-26T07:02:12.523Z,24.47
2022-12-26T07:05:01.217Z,24.50
2022-12-26T07:07:52.950Z,24.47
2022-12-26T07:10:41.632Z,24.45
2022-12-26T07:13:30.269Z,24.47
2022-12-26T07:16:20.356Z,24.50
2022-12-26T07:19:09.527Z,24.45
2022-12-26T07:21:58.216Z,24.49
2022-12-26T07:24:46.922Z,24.45
2022-12-26T07:27:35.586Z,24.47
2022-12-26T07:30:24.295Z,24.44
2022-12-26T07:33:14.367Z,24.42
2022-12-26T07:36:03.590Z,24.41
2022-12-26T07:38:52.312Z,24.44
2022-12-26T07:41:59.124Z,24.41
2022-12-26T07:44:47.859Z,24.40
2022-12-26T07:47:36.481Z,24.42
2022-12-26T07:50:27.484Z,24.39
2022-12-26T07:53:16.704Z,24.39
2022-12-26T07:56:05.726Z,24.38
2022-12-26T07:58:54.348Z,24.42
2022-12-26T08:01:43.265Z,24.39
2022-12-26T08:04:32.337Z,24.38
2022-12-26T08:07:22.309Z,24.37
2022-12-26T08:10:11.316Z,24.40
2022-12-26T08:13:00.017Z,24.36
2022-12-26T08:15:48.758Z,24.37
2022-12-26T08:18:37.432Z,24.38
2022-12-26T08:21:26.067Z,24.41
2022-12-26T08:24:16.181Z,24.45
2022-12-26T08:27:05.855Z,24.48
2022-12-26T08:29:54.446Z,24.52
2022-12-26T08:32:46.043Z,24.50
2022-12-26T08:35:35.469Z,24.58
2022-12-26T08:38:27.249Z,24.70
2022-12-26T08:41:21.701Z,24.66
2022-12-26T08:44:27.509Z,24.74
2022-12-26T08:47:16.829Z,24.79
2022-12-26T08:50:05.971Z,24.65
2022-12-26T08:52:54.569Z,24.57
2022-12-26T08:55:43.973Z,24.59
2022-12-26T08:58:34.416Z,24.51
2022-12-26T09:01:25.818Z,24.51
2022-12-26T09:04:14.578Z,24.56
2022-12-26T09:07:03.302Z,24.54
2022-12-26T09:09:51.967Z,24.51
2022-12-26T09:12:40.600Z,24.49
2022-12-26T09:15:30.568Z,24.53
2022-12-26T09:18:19.217Z,24.43
2022-12-26T09:21:12.403Z,24.45
2022-12-26T09:24:01.987Z,24.43
2022-12-26T09:26:50.674Z,24.41
2022-12-26T09:29:39.417Z,24.54
2022-12-26T09:32:29.443Z,24.50
2022-12-26T09:35:18.163Z,24.45
2022-12-26T09:38:06.847Z,24.40
2022-12-26T09:41:06.868Z,24.37
2022-12-26T09:44:02.555Z,24.33
2022-12-26T09:46:58.929Z,24.27
2022-12-26T09:49:52.687Z,24.29
2022-12-26T09:52:45.367Z,24.26
2022-12-26T09:55:41.365Z,24.22
2022-12-26T09:58:31.478Z,24.22
2022-12-26T10:01:23.523Z,24.21
2022-12-26T10:04:23.591Z,24.22
2022-12-26T10:07:24.101Z,24.20
2022-12-26T10:10:15.099Z,24.24
2022-12-26T10:13:11.504Z,24.15
2022-12-26T10:16:05.355Z,23.99
2022-12-26T10:19:04.549Z,24.06
2022-12-26T10:22:01.638Z,24.01
2022-12-26T10:24:52.048Z,24.22
2022-12-26T10:27:42.845Z,24.29
2022-12-26T10:30:37.268Z,24.16
2022-12-26T10:33:35.522Z,24.04
2022-12-26T10:36:31.701Z,24.09
2022-12-26T10:39:24.263Z,24.12
2022-12-26T10:42:21.464Z,24.09
2022-12-26T10:45:15.528Z,24.12
2022-12-26T10:48:04.624Z,24.08
2022-12-26T10:50:53.262Z,24.13
2022-12-26T10:53:43.812Z,24.15
2022-12-26T10:56:33.024Z,24.11
2022-12-26T10:59:26.465Z,24.19
2022-12-26T11:02:25.799Z,24.20
2022-12-26T11:05:33.362Z,24.20
2022-12-26T11:08:28.277Z,24.19
2022-12-26T11:11:22.985Z,24.19
2022-12-26T11:14:33.786Z,24.13
2022-12-26T11:17:27.603Z,24.15
2022-12-26T11:20:31.912Z,24.16
2022-12-26T11:23:28.179Z,24.19
2022-12-26T11:26:23.061Z,24.23
2022-12-26T11:29:14.003Z,24.14
2022-12-26T11:32:05.343Z,24.14
2022-12-26T11:34:53.933Z,24.18
2022-12-26T11:37:44.278Z,24.24
2022-12-26T11:40:36.643Z,24.26
2022-12-26T11:43:25.326Z,24.20
2022-12-26T11:46:14.246Z,24.21
2022-12-26T11:49:05.208Z,24.21
2022-12-26T11:51:59.082Z,24.22
2022-12-26T11:54:50.639Z,24.19
2022-12-26T11:57:39.268Z,24.19
2022-12-26T12:00:28.693Z,24.22
2022-12-26T12:03:19.286Z,24.22
2022-12-26T12:06:20.539Z,24.20
2022-12-26T12:09:16.615Z,24.13
2022-12-26T12:12:10.663Z,24.25
2022-12-26T12:15:05.533Z,24.20
2022-12-26T12:18:00.684Z,24.18
2022-12-26T12:21:00.856Z,24.22
2022-12-26T12:24:14.554Z,24.21
2022-12-26T12:27:10.860Z,24.23
2022-12-26T12:30:10.594Z,24.19
2022-12-26T12:33:15.613Z,24.09
2022-12-26T12:36:10.931Z,24.08
2022-12-26T12:39:13.475Z,24.11
2022-12-26T12:42:10.792Z,24.20
2022-12-26T12:45:18.777Z,24.23
2022-12-26T12:48:23.726Z,24.16
2022-12-26T12:51:19.106Z,24.21
2022-12-26T12:54:54.930Z,24.21
2022-12-26T12:57:46.941Z,24.16
2022-12-26T13:00:42.324Z,24.18
2022-12-26T13:03:35.506Z,24.12
2022-12-26T13:06:27.561Z,24.16
2022-12-26T13:09:18.816Z,24.29
2022-12-26T13:12:10.424Z,24.32
2022-12-26T13:15:02.070Z,24.14
2022-12-26T13:17:54.695Z,24.35
2022-12-26T13:20:46.113Z,24.34
2022-12-26T13:23:56.037Z,24.28
2022-12-26T13:26:46.851Z,24.36
2022-12-26T13:29:42.007Z,24.35
2022-12-26T13:32:32.192Z,24.48
2022-12-26T13:35:52.223Z,24.52
2022-12-26T13:39:23.170Z,24.67
2022-12-26T13:42:41.278Z,24.67
2022-12-26T13:45:58.539Z,24.66
2022-12-26T13:49:27.759Z,24.61
2022-12-26T13:52:36.657Z,24.51
2022-12-26T13:55:44.666Z,24.60
2022-12-26T13:58:51.799Z,24.55
2022-12-26T14:01:55.028Z,24.62
2022-12-26T14:04:52.364Z,24.60
2022-12-26T14:07:44.610Z,24.54
2022-12-26T14:10:43.412Z,24.61
2022-12-26T14:13:48.700Z,24.69
2022-12-26T14:16:47.461Z,24.64
2022-12-26T14:19:44.170Z,24.63
2022-12-26T14:22:40.660Z,24.70
2022-12-26T14:25:32.906Z,24.74
2022-12-26T14:28:26.389Z,24.85
2022-12-26T14:31:22.080Z,24.76
2022-12-26T14:34:25.182Z,24.71
2022-12-26T14:37:19.777Z,24.68
2022-12-26T14:40:30.515Z,24.71
2022-12-26T14:43:33.553Z,24.69
2022-12-26T14:47:00.810Z,24.71
2022-12-26T14:49:51.540Z,24.74
2022-12-26T14:52:43.275Z,24.64
2022-12-26T14:55:47.317Z,24.72
2022-12-26T14:58:42.146Z,24.68
2022-12-26T15:01:51.857Z,24.78
2022-12-26T15:05:01.635Z,24.79
2022-12-26T15:08:13.869Z,24.64
2022-12-26T15:11:47.612Z,24.60
2022-12-26T15:15:05.897Z,24.57
2022-12-26T15:18:20.411Z,24.63
2022-12-26T15:21:30.362Z,24.67
2022-12-26T15:25:18.690Z,24.79
2022-12-26T15:28:18.799Z,24.83
2022-12-26T15:31:36.221Z,24.79
2022-12-26T15:34:47.601Z,24.72
2022-12-26T15:37:47.235Z,24.77
2022-12-26T15:40:38.191Z,24.87
2022-12-26T15:43:49.639Z,24.78
2022-12-26T15:46:42.445Z,24.76
2022-12-26T15:49:41.953Z,24.67
2022-12-26T15:52:39.669Z,24.66
2022-12-26T15:55:57.334Z,24.77
2022-12-26T15:59:02.993Z,24.72
2022-12-26T16:01:54.866Z,24.71
2022-12-26T16:04:46.097Z,24.70
2022-12-26T16:07:37.409Z,24.64
2022-12-26T16:10:31.690Z,24.60
2022-12-26T16:13:23.680Z,24.51
2022-12-26T16:16:12.584Z,24.59
2022-12-26T16:19:17.146Z,24.56
2022-12-26T16:22:26.085Z,24.56
2022-12-26T16:25:17.543Z,24.52
2022-12-26T16:28:06.869Z,24.57
2022-12-26T16:30:57.627Z,24.64
2022-12-26T16:33:47.316Z,24.57
2022-12-26T16:36:36.578Z,24.58
2022-12-26T16:39:25.427Z,24.63
2022-12-26T16:42:30.624Z,24.67
2022-12-26T16:45:21.197Z,24.73
2022-12-26T16:48:15.587Z,24.77
2022-12-26T16:51:06.385Z,24.66
2022-12-26T16:53:55.084Z,24.72
2022-12-26T16:56:44.167Z,24.74
2022-12-26T16:59:51.083Z,24.81
2022-12-26T17:02:40.055Z,24.82
2022-12-26T17:05:32.056Z,24.72
2022-12-26T17:08:21.492Z,24.65
2022-12-26T17:11:10.332Z,24.70
2022-12-26T17:13:59.580Z,24.69
2022-12-26T17:16:48.315Z,24.78
2022-12-26T17:19:38.492Z,24.70
2022-12-26T17:22:32.496Z,24.80
2022-12-26T17:25:26.582Z,24.87
2022-12-26T17:28:24.140Z,24.73
2022-12-26T17:31:14.569Z,24.69
2022-12-26T17:34:04.733Z,24.74
2022-12-26T17:37:18.563Z,24.85
2022-12-26T17:40:09.643Z,24.75
2022-12-26T17:43:07.775Z,24.85
2022-12-26T17:45:56.452Z,24.78
2022-12-26T17:48:45.538Z,24.72
2022-12-26T17:51:34.465Z,24.64
2022-12-26T17:54:23.070Z,24.62
2022-12-26T17:57:18.470Z,24.66
2022-12-26T18:00:11.916Z,24.75
2022-12-26T18:03:00.584Z,24.72
2022-12-26T18:05:50.495Z,24.63
2022-12-26T18:08:41.302Z,24.63
2022-12-26T18:11:29.881Z,24.58
2022-12-26T18:14:19.926Z,24.55
2022-12-26T18:17:09.356Z,24.59
2022-12-26T18:19:57.916Z,24.65
2022-12-26T18:22:47.713Z,24.56
2022-12-26T18:25:36.340Z,24.59
2022-12-26T18:28:24.944Z,24.64
2022-12-26T18:31:17.163Z,24.52
2022-12-26T18:34:05.826Z,24.56
2022-12-26T18:36:54.436Z,24.53
2022-12-26T18:39:43.151Z,24.57
2022-12-26T18:42:31.763Z,24.58
2022-12-26T18:45:20.434Z,24.54
2022-12-26T18:48:14.648Z,24.61
2022-12-26T18:51:04.810Z,24.65
2022-12-26T18:53:54.670Z,24.76
2022-12-26T18:56:46.580Z,24.71
2022-12-26T18:59:35.425Z,24.76
2022-12-26T19:02:24.000Z,24.86
2022-12-26T19:05:19.082Z,24.91
2022-12-26T19:08:07.992Z,24.80
2022-12-26T19:10:56.520Z,24.75
2022-12-26T19:13:45.234Z,24.85
2022-12-26T19:16:33.936Z,24.87
2022-12-26T19:19:23.289Z,24.88
2022-12-26T19:22:13.556Z,24.89
2022-12-26T19:25:02.138Z,25.02
2022-12-26T19:27:52.630Z,25.11
2022-12-26T19:30:41.304Z,25.12
2022-12-26T19:33:29.915Z,25.17
2022-12-26T19:36:18.695Z,25.13
2022-12-26T19:39:08.600Z,25.20
2022-12-26T19:41:57.187Z,25.27
2022-12-26T19:44:47.890Z,25.22
2022-12-26T19:47:36.743Z,25.13
2022-12-26T19:50:25.307Z,25.12
2022-12-26T19:53:13.844Z,25.12
2022-12-26T19:56:08.480Z,25.12
2022-12-26T19:58:57.250Z,25.09
2022-12-26T20:01:45.900Z,25.09
2022-12-26T20:04:34.764Z,25.05
2022-12-26T20:07:23.303Z,24.99
2022-12-26T20:10:11.955Z,24.96
2022-12-26T20:13:01.964Z,24.98
2022-12-26T20:15:50.600Z,24.99
2022-12-26T20:18:39.963Z,24.90
2022-12-26T20:21:28.629Z,24.97
2022-12-26T20:24:18.660Z,24.92
2022-12-26T20:27:07.309Z,24.97
2022-12-26T20:29:57.307Z,25.01
2022-12-26T20:32:47.261Z,24.98
2022-12-26T20:35:35.906Z,24.93
2022-12-26T20:38:24.573Z,24.95
2022-12-26T20:41:13.943Z,24.97
2022-12-26T20:44:02.891Z,24.99
2022-12-26T20:46:52.894Z,24.99
2022-12-26T20:49:41.519Z,24.96
2022-12-26T20:52:30.274Z,24.88
2022-12-26T20:55:18.969Z,25.08
2022-12-26T20:58:07.563Z,24.95
2022-12-26T21:01:00.350Z,24.95
2022-12-26T21:03:52.346Z,25.00
2022-12-26T21:06:40.887Z,24.99
2022-12-26T21:09:29.514Z,25.01
2022-12-26T21:12:18.143Z,24.99
2022-12-26T21:15:08.222Z,24.98
2022-12-26T21:17:56.856Z,24.99
2022-12-26T21:20:46.836Z,24.99
2022-12-26T21:23:35.704Z,24.97
2022-12-26T21:26:24.613Z,24.96
2022-12-26T21:29:16.001Z,25.00
2022-12-26T21:32:05.428Z,24.99
2022-12-26T21:34:54.164Z,24.98
2022-12-26T21:37:51.554Z,24.94
2022-12-26T21:40:43.979Z,25.04
2022-12-26T21:43:32.605Z,25.05
2022-12-26T21:46:22.068Z,25.03
2022-12-26T21:49:10.829Z,24.99
2022-12-26T21:51:59.428Z,25.08
2022-12-26T21:55:07.107Z,25.09
2022-12-26T21:57:56.025Z,25.10
2022-12-26T22:00:45.151Z,25.09
2022-12-26T22:03:51.307Z,25.09
2022-12-26T22:06:40.529Z,25.19
2022-12-26T22:09:29.149Z,25.13
2022-12-26T22:12:40.119Z,25.15
2022-12-26T22:15:46.583Z,25.14
2022-12-26T22:18:37.710Z,25.11
2022-12-26T22:21:26.336Z,25.13
2022-12-26T22:24:15.234Z,25.13
2022-12-26T22:27:03.888Z,25.15
2022-12-26T22:29:53.889Z,25.18
2022-12-26T22:32:42.582Z,25.23
2022-12-26T22:35:31.132Z,25.18
2022-12-26T22:38:19.975Z,25.18
2022-12-26T22:41:08.566Z,25.12
2022-12-26T22:43:57.670Z,25.15
2022-12-26T22:46:47.653Z,25.06
2022-12-26T22:49:36.357Z,25.07
2022-12-26T22:52:24.980Z,25.10
2022-12-26T22:55:14.490Z,25.09
2022-12-26T22:58:03.146Z,24.94
2022-12-26T23:00:51.869Z,24.90
2022-12-26T23:03:42.059Z,24.88
2022-12-26T23:06:32.641Z,24.87
2022-12-26T23:09:21.714Z,24.76
2022-12-26T23:12:29.798Z,24.72
2022-12-26T23:15:20.248Z,24.63
2022-12-26T23:18:42.056Z,24.63
2022-12-26T23:21:40.218Z,24.62
2022-12-26T23:24:31.861Z,24.51
2022-12-26T23:27:38.131Z,24.49
2022-12-26T23:30:31.172Z,24.46
2022-12-26T23:33:19.766Z,24.43
2022-12-26T23:36:09.423Z,24.45
2022-12-26T23:38:59.430Z,24.40
2022-12-26T23:41:48.093Z,24.42
2022-12-26T23:44:36.724Z,24.38
2022-12-26T23:47:25.330Z,24.37
2022-12-26T23:50:16.051Z,24.40
2022-12-26T23:53:04.726Z,24.37
2022-12-26T23:55:54.671Z,24.39
2022-12-26T23:58:43.298Z,24.39
